sensor_id;sensor_type;location;lat;lon;timestamp;P1;durP1;ratioP1;P2;durP2;ratioP2
3629;SDS011;1831;53.626;10.012;2022-08-03T00:01:04;14.83;;;8.37;;
3629;SDS011;1831;53.626;10.012;2022-08-03T00:03:31;11.27;;;8.27;;
3629;SDS011;1831;53.626;10.012;2022-08-03T00:06:00;9.67;;;8.50;;
3629;SDS011;1831;53.626;10.012;2022-08-03T00:08:27;11.93;;;8.70;;
3629;SDS011;1831;53.626;10.012;2022-08-03T00:10:54;14.00;;;8.93;;
3629;SDS011;1831;53.626;10.012;2022-08-03T00:13:20;14.40;;;8.80;;
3629;SDS011;1831;53.626;10.012;2022-08-03T00:15:47;14.80;;;8.93;;
3629;SDS011;1831;53.626;10.012;2022-08-03T00:18:14;8.80;;;7.50;;
3629;SDS011;1831;53.626;10.012;2022-08-03T00:20:41;10.23;;;8.17;;
3629;SDS011;1831;53.626;10.012;2022-08-03T00:23:09;9.57;;;8.57;;
3629;SDS011;1831;53.626;10.012;2022-08-03T00:25:36;10.70;;;9.40;;
3629;SDS011;1831;53.626;10.012;2022-08-03T00:28:04;12.60;;;8.73;;
3629;SDS011;1831;53.626;10.012;2022-08-03T00:30:31;12.87;;;8.07;;
3629;SDS011;1831;53.626;10.012;2022-08-03T00:32:59;10.67;;;8.77;;
3629;SDS011;1831;53.626;10.012;2022-08-03T00:35:28;9.33;;;8.03;;
3629;SDS011;1831;53.626;10.012;2022-08-03T00:37:55;9.13;;;8.23;;
3629;SDS011;1831;53.626;10.012;2022-08-03T00:40:24;11.40;;;8.33;;
3629;SDS011;1831;53.626;10.012;2022-08-03T00:42:52;12.57;;;8.80;;
3629;SDS011;1831;53.626;10.012;2022-08-03T00:45:21;12.30;;;8.57;;
3629;SDS011;1831;53.626;10.012;2022-08-03T00:47:49;9.10;;;8.20;;
3629;SDS011;1831;53.626;10.012;2022-08-03T00:50:18;15.90;;;8.67;;
3629;SDS011;1831;53.626;10.012;2022-08-03T00:52:47;11.43;;;8.73;;
3629;SDS011;1831;53.626;10.012;2022-08-03T00:55:14;9.23;;;8.20;;
3629;SDS011;1831;53.626;10.012;2022-08-03T00:57:43;11.07;;;8.07;;
3629;SDS011;1831;53.626;10.012;2022-08-03T01:00:11;9.10;;;7.53;;
3629;SDS011;1831;53.626;10.012;2022-08-03T01:02:39;11.70;;;8.23;;
3629;SDS011;1831;53.626;10.012;2022-08-03T01:05:07;9.27;;;8.27;;
3629;SDS011;1831;53.626;10.012;2022-08-03T01:07:39;11.23;;;8.13;;
3629;SDS011;1831;53.626;10.012;2022-08-03T01:10:19;10.00;;;8.90;;
3629;SDS011;1831;53.626;10.012;2022-08-03T01:12:54;10.27;;;8.27;;
3629;SDS011;1831;53.626;10.012;2022-08-03T01:15:26;8.80;;;7.93;;
3629;SDS011;1831;53.626;10.012;2022-08-03T01:17:58;9.83;;;7.73;;
3629;SDS011;1831;53.626;10.012;2022-08-03T01:20:31;9.60;;;8.60;;
3629;SDS011;1831;53.626;10.012;2022-08-03T01:23:14;8.63;;;7.70;;
3629;SDS011;1831;53.626;10.012;2022-08-03T01:26:02;9.80;;;8.20;;
3629;SDS011;1831;53.626;10.012;2022-08-03T01:28:51;11.70;;;8.70;;
3629;SDS011;1831;53.626;10.012;2022-08-03T01:31:27;9.67;;;8.67;;
3629;SDS011;1831;53.626;10.012;2022-08-03T01:33:59;9.50;;;8.10;;
3629;SDS011;1831;53.626;10.012;2022-08-03T01:36:29;9.80;;;8.80;;
3629;SDS011;1831;53.626;10.012;2022-08-03T01:39:00;10.07;;;9.07;;
3629;SDS011;1831;53.626;10.012;2022-08-03T01:41:34;11.93;;;9.37;;
3629;SDS011;1831;53.626;10.012;2022-08-03T01:44:06;10.50;;;8.40;;
3629;SDS011;1831;53.626;10.012;2022-08-03T01:46:36;9.47;;;8.13;;
3629;SDS011;1831;53.626;10.012;2022-08-03T01:49:05;11.63;;;8.90;;
3629;SDS011;1831;53.626;10.012;2022-08-03T01:51:35;11.13;;;8.30;;
3629;SDS011;1831;53.626;10.012;2022-08-03T01:54:03;9.13;;;7.73;;
3629;SDS011;1831;53.626;10.012;2022-08-03T01:56:33;8.90;;;8.10;;
3629;SDS011;1831;53.626;10.012;2022-08-03T01:59:02;9.20;;;8.30;;
3629;SDS011;1831;53.626;10.012;2022-08-03T02:01:32;8.50;;;7.60;;
3629;SDS011;1831;53.626;10.012;2022-08-03T02:04:03;12.53;;;8.87;;
3629;SDS011;1831;53.626;10.012;2022-08-03T02:06:32;13.10;;;8.57;;
3629;SDS011;1831;53.626;10.012;2022-08-03T02:09:00;9.53;;;8.23;;
3629;SDS011;1831;53.626;10.012;2022-08-03T02:11:29;9.83;;;8.83;;
3629;SDS011;1831;53.626;10.012;2022-08-03T02:13:58;9.57;;;8.60;;
3629;SDS011;1831;53.626;10.012;2022-08-03T02:16:28;14.40;;;9.30;;
3629;SDS011;1831;53.626;10.012;2022-08-03T02:18:57;12.83;;;8.83;;
3629;SDS011;1831;53.626;10.012;2022-08-03T02:21:28;14.43;;;8.77;;
3629;SDS011;1831;53.626;10.012;2022-08-03T02:23:57;11.27;;;9.20;;
3629;SDS011;1831;53.626;10.012;2022-08-03T02:26:25;11.83;;;9.47;;
3629;SDS011;1831;53.626;10.012;2022-08-03T02:28:55;10.53;;;8.83;;
3629;SDS011;1831;53.626;10.012;2022-08-03T02:31:32;9.70;;;8.30;;
3629;SDS011;1831;53.626;10.012;2022-08-03T02:34:02;9.77;;;8.87;;
3629;SDS011;1831;53.626;10.012;2022-08-03T02:36:36;12.00;;;8.93;;
3629;SDS011;1831;53.626;10.012;2022-08-03T02:39:06;10.67;;;9.67;;
3629;SDS011;1831;53.626;10.012;2022-08-03T02:41:40;10.30;;;9.20;;
3629;SDS011;1831;53.626;10.012;2022-08-03T02:44:11;9.93;;;8.90;;
3629;SDS011;1831;53.626;10.012;2022-08-03T02:46:40;11.30;;;8.97;;
3629;SDS011;1831;53.626;10.012;2022-08-03T02:49:11;9.50;;;8.60;;
3629;SDS011;1831;53.626;10.012;2022-08-03T02:51:40;9.77;;;8.87;;
3629;SDS011;1831;53.626;10.012;2022-08-03T02:54:08;10.10;;;9.10;;
3629;SDS011;1831;53.626;10.012;2022-08-03T02:56:37;10.37;;;9.37;;
3629;SDS011;1831;53.626;10.012;2022-08-03T02:59:04;11.77;;;9.80;;
3629;SDS011;1831;53.626;10.012;2022-08-03T03:01:32;10.10;;;9.10;;
3629;SDS011;1831;53.626;10.012;2022-08-03T03:04:00;11.27;;;8.63;;
3629;SDS011;1831;53.626;10.012;2022-08-03T03:06:27;13.00;;;10.70;;
3629;SDS011;1831;53.626;10.012;2022-08-03T03:08:57;19.20;;;17.23;;
3629;SDS011;1831;53.626;10.012;2022-08-03T03:11:24;13.27;;;11.80;;
3629;SDS011;1831;53.626;10.012;2022-08-03T03:13:52;13.27;;;9.97;;
3629;SDS011;1831;53.626;10.012;2022-08-03T03:16:20;14.60;;;10.33;;
3629;SDS011;1831;53.626;10.012;2022-08-03T03:18:48;20.00;;;10.17;;
3629;SDS011;1831;53.626;10.012;2022-08-03T03:21:17;15.30;;;10.80;;
3629;SDS011;1831;53.626;10.012;2022-08-03T03:23:45;11.17;;;10.07;;
3629;SDS011;1831;53.626;10.012;2022-08-03T03:26:14;11.73;;;10.53;;
3629;SDS011;1831;53.626;10.012;2022-08-03T03:28:41;11.60;;;10.50;;
3629;SDS011;1831;53.626;10.012;2022-08-03T03:31:09;14.77;;;9.97;;
3629;SDS011;1831;53.626;10.012;2022-08-03T03:33:36;10.80;;;8.77;;
3629;SDS011;1831;53.626;10.012;2022-08-03T03:36:04;10.33;;;9.43;;
3629;SDS011;1831;53.626;10.012;2022-08-03T03:38:32;10.57;;;9.47;;
3629;SDS011;1831;53.626;10.012;2022-08-03T03:40:59;13.50;;;10.33;;
3629;SDS011;1831;53.626;10.012;2022-08-03T03:43:28;10.70;;;9.63;;
3629;SDS011;1831;53.626;10.012;2022-08-03T03:45:55;10.27;;;9.37;;
3629;SDS011;1831;53.626;10.012;2022-08-03T03:48:23;14.10;;;10.20;;
3629;SDS011;1831;53.626;10.012;2022-08-03T03:50:51;11.67;;;10.43;;
3629;SDS011;1831;53.626;10.012;2022-08-03T03:53:21;11.80;;;10.70;;
3629;SDS011;1831;53.626;10.012;2022-08-03T03:55:49;11.20;;;9.97;;
3629;SDS011;1831;53.626;10.012;2022-08-03T03:58:17;13.43;;;10.70;;
3629;SDS011;1831;53.626;10.012;2022-08-03T04:00:48;12.67;;;10.10;;
3629;SDS011;1831;53.626;10.012;2022-08-03T04:03:17;11.07;;;9.90;;
3629;SDS011;1831;53.626;10.012;2022-08-03T04:05:44;10.43;;;9.53;;
3629;SDS011;1831;53.626;10.012;2022-08-03T04:08:29;10.63;;;9.70;;
3629;SDS011;1831;53.626;10.012;2022-08-03T04:11:25;11.87;;;9.70;;
3629;SDS011;1831;53.626;10.012;2022-08-03T04:13:56;24.47;;;17.40;;
3629;SDS011;1831;53.626;10.012;2022-08-03T04:16:28;25.13;;;22.73;;
3629;SDS011;1831;53.626;10.012;2022-08-03T04:18:58;19.03;;;17.23;;
3629;SDS011;1831;53.626;10.012;2022-08-03T04:21:28;15.00;;;13.63;;
3629;SDS011;1831;53.626;10.012;2022-08-03T04:23:57;13.10;;;11.60;;
3629;SDS011;1831;53.626;10.012;2022-08-03T04:26:26;15.03;;;10.87;;
3629;SDS011;1831;53.626;10.012;2022-08-03T04:28:55;11.43;;;10.17;;
3629;SDS011;1831;53.626;10.012;2022-08-03T04:31:23;13.27;;;10.60;;
3629;SDS011;1831;53.626;10.012;2022-08-03T04:33:53;10.60;;;9.50;;
3629;SDS011;1831;53.626;10.012;2022-08-03T04:36:22;11.93;;;10.40;;
3629;SDS011;1831;53.626;10.012;2022-08-03T04:38:53;11.33;;;10.13;;
3629;SDS011;1831;53.626;10.012;2022-08-03T04:41:24;10.77;;;9.70;;
3629;SDS011;1831;53.626;10.012;2022-08-03T04:43:53;11.37;;;10.20;;
3629;SDS011;1831;53.626;10.012;2022-08-03T04:46:21;10.50;;;9.50;;
3629;SDS011;1831;53.626;10.012;2022-08-03T04:48:51;15.13;;;10.53;;
3629;SDS011;1831;53.626;10.012;2022-08-03T04:51:20;13.97;;;10.50;;
3629;SDS011;1831;53.626;10.012;2022-08-03T04:53:47;11.13;;;10.03;;
3629;SDS011;1831;53.626;10.012;2022-08-03T04:56:14;12.03;;;10.80;;
3629;SDS011;1831;53.626;10.012;2022-08-03T04:58:41;16.83;;;14.13;;
3629;SDS011;1831;53.626;10.012;2022-08-03T05:01:08;15.57;;;13.33;;
3629;SDS011;1831;53.626;10.012;2022-08-03T05:03:35;13.63;;;12.27;;
3629;SDS011;1831;53.626;10.012;2022-08-03T05:06:02;13.97;;;11.90;;
3629;SDS011;1831;53.626;10.012;2022-08-03T05:08:30;12.90;;;11.70;;
3629;SDS011;1831;53.626;10.012;2022-08-03T05:10:57;13.27;;;11.30;;
3629;SDS011;1831;53.626;10.012;2022-08-03T05:13:24;15.37;;;13.73;;
3629;SDS011;1831;53.626;10.012;2022-08-03T05:15:51;13.63;;;12.23;;
3629;SDS011;1831;53.626;10.012;2022-08-03T05:18:17;12.53;;;11.33;;
3629;SDS011;1831;53.626;10.012;2022-08-03T05:20:45;11.53;;;10.43;;
3629;SDS011;1831;53.626;10.012;2022-08-03T05:23:11;14.30;;;10.97;;
3629;SDS011;1831;53.626;10.012;2022-08-03T05:25:40;12.17;;;10.90;;
3629;SDS011;1831;53.626;10.012;2022-08-03T05:28:07;13.53;;;11.70;;
3629;SDS011;1831;53.626;10.012;2022-08-03T05:30:35;17.50;;;15.73;;
3629;SDS011;1831;53.626;10.012;2022-08-03T05:33:02;15.80;;;14.20;;
3629;SDS011;1831;53.626;10.012;2022-08-03T05:35:29;15.47;;;13.80;;
3629;SDS011;1831;53.626;10.012;2022-08-03T05:37:56;16.30;;;12.13;;
3629;SDS011;1831;53.626;10.012;2022-08-03T05:40:23;15.10;;;12.77;;
3629;SDS011;1831;53.626;10.012;2022-08-03T05:42:51;14.80;;;10.93;;
3629;SDS011;1831;53.626;10.012;2022-08-03T05:45:19;13.43;;;12.03;;
3629;SDS011;1831;53.626;10.012;2022-08-03T05:47:46;15.30;;;11.00;;
3629;SDS011;1831;53.626;10.012;2022-08-03T05:50:15;17.93;;;10.93;;
3629;SDS011;1831;53.626;10.012;2022-08-03T05:52:42;16.37;;;12.23;;
3629;SDS011;1831;53.626;10.012;2022-08-03T05:55:10;15.70;;;11.53;;
3629;SDS011;1831;53.626;10.012;2022-08-03T05:57:38;14.80;;;10.50;;
3629;SDS011;1831;53.626;10.012;2022-08-03T06:00:08;11.87;;;10.63;;
3629;SDS011;1831;53.626;10.012;2022-08-03T06:02:36;11.90;;;10.60;;
3629;SDS011;1831;53.626;10.012;2022-08-03T06:05:03;16.43;;;9.93;;
3629;SDS011;1831;53.626;10.012;2022-08-03T06:07:30;12.30;;;9.60;;
3629;SDS011;1831;53.626;10.012;2022-08-03T06:09:58;13.93;;;10.30;;
3629;SDS011;1831;53.626;10.012;2022-08-03T06:12:26;13.90;;;10.17;;
3629;SDS011;1831;53.626;10.012;2022-08-03T06:14:53;12.87;;;10.33;;
3629;SDS011;1831;53.626;10.012;2022-08-03T06:17:21;12.43;;;10.53;;
3629;SDS011;1831;53.626;10.012;2022-08-03T06:19:50;14.87;;;11.30;;
3629;SDS011;1831;53.626;10.012;2022-08-03T06:22:18;14.70;;;11.63;;
3629;SDS011;1831;53.626;10.012;2022-08-03T06:24:45;12.13;;;10.80;;
3629;SDS011;1831;53.626;10.012;2022-08-03T06:27:12;15.70;;;11.50;;
3629;SDS011;1831;53.626;10.012;2022-08-03T06:29:39;17.53;;;10.53;;
3629;SDS011;1831;53.626;10.012;2022-08-03T06:32:06;12.87;;;10.53;;
3629;SDS011;1831;53.626;10.012;2022-08-03T06:34:34;14.30;;;11.63;;
3629;SDS011;1831;53.626;10.012;2022-08-03T06:37:01;13.30;;;10.30;;
3629;SDS011;1831;53.626;10.012;2022-08-03T06:39:29;13.77;;;11.40;;
3629;SDS011;1831;53.626;10.012;2022-08-03T06:41:56;17.63;;;10.50;;
3629;SDS011;1831;53.626;10.012;2022-08-03T06:44:23;17.60;;;10.67;;
3629;SDS011;1831;53.626;10.012;2022-08-03T06:46:50;12.83;;;10.83;;
3629;SDS011;1831;53.626;10.012;2022-08-03T06:49:17;10.40;;;9.37;;
3629;SDS011;1831;53.626;10.012;2022-08-03T06:51:45;12.50;;;10.07;;
3629;SDS011;1831;53.626;10.012;2022-08-03T06:54:14;16.40;;;9.70;;
3629;SDS011;1831;53.626;10.012;2022-08-03T06:56:41;15.20;;;11.13;;
3629;SDS011;1831;53.626;10.012;2022-08-03T06:59:08;16.43;;;10.20;;
3629;SDS011;1831;53.626;10.012;2022-08-03T07:01:35;15.00;;;10.83;;
3629;SDS011;1831;53.626;10.012;2022-08-03T07:04:02;13.97;;;10.13;;
3629;SDS011;1831;53.626;10.012;2022-08-03T07:06:29;14.40;;;9.10;;
3629;SDS011;1831;53.626;10.012;2022-08-03T07:08:58;11.17;;;8.10;;
3629;SDS011;1831;53.626;10.012;2022-08-03T07:11:25;14.00;;;7.67;;
3629;SDS011;1831;53.626;10.012;2022-08-03T07:13:52;8.63;;;6.77;;
3629;SDS011;1831;53.626;10.012;2022-08-03T07:16:23;8.30;;;6.20;;
3629;SDS011;1831;53.626;10.012;2022-08-03T07:18:50;12.83;;;6.40;;
3629;SDS011;1831;53.626;10.012;2022-08-03T07:21:17;11.10;;;6.57;;
3629;SDS011;1831;53.626;10.012;2022-08-03T07:23:44;9.27;;;6.27;;
3629;SDS011;1831;53.626;10.012;2022-08-03T07:26:12;11.60;;;6.67;;
3629;SDS011;1831;53.626;10.012;2022-08-03T07:28:39;8.73;;;6.40;;
3629;SDS011;1831;53.626;10.012;2022-08-03T07:31:06;11.50;;;6.33;;
3629;SDS011;1831;53.626;10.012;2022-08-03T07:33:33;9.43;;;6.80;;
3629;SDS011;1831;53.626;10.012;2022-08-03T07:36:00;9.90;;;6.70;;
3629;SDS011;1831;53.626;10.012;2022-08-03T07:38:26;11.00;;;7.00;;
3629;SDS011;1831;53.626;10.012;2022-08-03T07:40:54;17.30;;;7.17;;
3629;SDS011;1831;53.626;10.012;2022-08-03T07:43:22;9.57;;;6.87;;
3629;SDS011;1831;53.626;10.012;2022-08-03T07:45:49;11.63;;;6.27;;
3629;SDS011;1831;53.626;10.012;2022-08-03T07:48:16;15.27;;;7.20;;
3629;SDS011;1831;53.626;10.012;2022-08-03T07:50:43;7.53;;;6.27;;
3629;SDS011;1831;53.626;10.012;2022-08-03T07:53:10;16.90;;;11.60;;
3629;SDS011;1831;53.626;10.012;2022-08-03T07:55:40;10.10;;;6.23;;
3629;SDS011;1831;53.626;10.012;2022-08-03T07:58:08;13.17;;;6.57;;
3629;SDS011;1831;53.626;10.012;2022-08-03T08:00:41;8.07;;;6.10;;
3629;SDS011;1831;53.626;10.012;2022-08-03T08:03:08;7.83;;;5.47;;
3629;SDS011;1831;53.626;10.012;2022-08-03T08:05:36;8.93;;;4.90;;
3629;SDS011;1831;53.626;10.012;2022-08-03T08:08:03;6.43;;;4.90;;
3629;SDS011;1831;53.626;10.012;2022-08-03T08:10:30;8.30;;;4.80;;
3629;SDS011;1831;53.626;10.012;2022-08-03T08:12:57;8.13;;;4.50;;
3629;SDS011;1831;53.626;10.012;2022-08-03T08:15:25;5.87;;;4.70;;
3629;SDS011;1831;53.626;10.012;2022-08-03T08:17:54;8.93;;;5.10;;
3629;SDS011;1831;53.626;10.012;2022-08-03T08:20:23;7.03;;;4.47;;
3629;SDS011;1831;53.626;10.012;2022-08-03T08:22:51;9.37;;;4.50;;
3629;SDS011;1831;53.626;10.012;2022-08-03T08:25:18;8.30;;;4.23;;
3629;SDS011;1831;53.626;10.012;2022-08-03T08:27:46;7.60;;;4.67;;
3629;SDS011;1831;53.626;10.012;2022-08-03T08:30:15;7.77;;;4.50;;
3629;SDS011;1831;53.626;10.012;2022-08-03T08:32:43;7.27;;;4.63;;
3629;SDS011;1831;53.626;10.012;2022-08-03T08:35:11;5.33;;;3.97;;
3629;SDS011;1831;53.626;10.012;2022-08-03T08:37:38;7.67;;;4.10;;
3629;SDS011;1831;53.626;10.012;2022-08-03T08:40:06;6.17;;;4.07;;
3629;SDS011;1831;53.626;10.012;2022-08-03T08:42:39;8.00;;;3.60;;
3629;SDS011;1831;53.626;10.012;2022-08-03T08:45:08;10.83;;;3.97;;
3629;SDS011;1831;53.626;10.012;2022-08-03T08:47:39;8.83;;;4.17;;
3629;SDS011;1831;53.626;10.012;2022-08-03T08:50:09;11.90;;;4.17;;
3629;SDS011;1831;53.626;10.012;2022-08-03T08:52:38;10.33;;;4.33;;
3629;SDS011;1831;53.626;10.012;2022-08-03T08:55:07;8.30;;;4.00;;
3629;SDS011;1831;53.626;10.012;2022-08-03T08:57:36;5.83;;;3.97;;
3629;SDS011;1831;53.626;10.012;2022-08-03T09:00:05;8.03;;;4.10;;
3629;SDS011;1831;53.626;10.012;2022-08-03T09:02:34;9.80;;;4.30;;
3629;SDS011;1831;53.626;10.012;2022-08-03T09:05:01;7.60;;;3.70;;
3629;SDS011;1831;53.626;10.012;2022-08-03T09:07:31;7.60;;;4.10;;
3629;SDS011;1831;53.626;10.012;2022-08-03T09:09:59;10.20;;;4.07;;
3629;SDS011;1831;53.626;10.012;2022-08-03T09:12:26;7.77;;;4.00;;
3629;SDS011;1831;53.626;10.012;2022-08-03T09:14:54;8.23;;;3.77;;
3629;SDS011;1831;53.626;10.012;2022-08-03T09:17:21;7.40;;;3.60;;
3629;SDS011;1831;53.626;10.012;2022-08-03T09:20:03;7.57;;;3.83;;
3629;SDS011;1831;53.626;10.012;2022-08-03T09:22:32;10.90;;;4.00;;
3629;SDS011;1831;53.626;10.012;2022-08-03T09:25:01;9.57;;;3.90;;
3629;SDS011;1831;53.626;10.012;2022-08-03T09:27:40;6.27;;;3.80;;
3629;SDS011;1831;53.626;10.012;2022-08-03T09:30:11;5.90;;;3.20;;
3629;SDS011;1831;53.626;10.012;2022-08-03T09:32:40;5.77;;;3.70;;
3629;SDS011;1831;53.626;10.012;2022-08-03T09:35:09;8.40;;;3.50;;
3629;SDS011;1831;53.626;10.012;2022-08-03T09:37:36;5.90;;;3.20;;
3629;SDS011;1831;53.626;10.012;2022-08-03T09:40:05;8.07;;;3.20;;
3629;SDS011;1831;53.626;10.012;2022-08-03T09:42:33;6.83;;;3.07;;
3629;SDS011;1831;53.626;10.012;2022-08-03T09:45:02;5.93;;;3.10;;
3629;SDS011;1831;53.626;10.012;2022-08-03T09:47:31;9.63;;;3.80;;
3629;SDS011;1831;53.626;10.012;2022-08-03T09:50:01;9.10;;;3.30;;
3629;SDS011;1831;53.626;10.012;2022-08-03T09:52:31;7.10;;;3.57;;
3629;SDS011;1831;53.626;10.012;2022-08-03T09:54:59;10.27;;;3.60;;
3629;SDS011;1831;53.626;10.012;2022-08-03T09:57:28;8.87;;;3.80;;
3629;SDS011;1831;53.626;10.012;2022-08-03T10:00:05;13.07;;;4.33;;
3629;SDS011;1831;53.626;10.012;2022-08-03T10:02:36;5.23;;;3.00;;
3629;SDS011;1831;53.626;10.012;2022-08-03T10:05:03;7.03;;;3.30;;
3629;SDS011;1831;53.626;10.012;2022-08-03T10:07:40;5.43;;;3.03;;
3629;SDS011;1831;53.626;10.012;2022-08-03T10:10:08;6.87;;;2.80;;
3629;SDS011;1831;53.626;10.012;2022-08-03T10:12:37;7.53;;;3.33;;
3629;SDS011;1831;53.626;10.012;2022-08-03T10:15:06;8.87;;;3.53;;
3629;SDS011;1831;53.626;10.012;2022-08-03T10:17:33;6.10;;;3.17;;
3629;SDS011;1831;53.626;10.012;2022-08-03T10:20:00;8.50;;;3.23;;
3629;SDS011;1831;53.626;10.012;2022-08-03T10:22:30;11.37;;;3.20;;
3629;SDS011;1831;53.626;10.012;2022-08-03T10:24:59;10.17;;;3.17;;
3629;SDS011;1831;53.626;10.012;2022-08-03T10:27:30;11.17;;;3.03;;
3629;SDS011;1831;53.626;10.012;2022-08-03T10:30:01;7.53;;;2.77;;
3629;SDS011;1831;53.626;10.012;2022-08-03T10:32:31;10.97;;;3.27;;
3629;SDS011;1831;53.626;10.012;2022-08-03T10:35:02;7.70;;;3.10;;
3629;SDS011;1831;53.626;10.012;2022-08-03T10:37:31;6.87;;;3.20;;
3629;SDS011;1831;53.626;10.012;2022-08-03T10:40:02;6.57;;;3.20;;
3629;SDS011;1831;53.626;10.012;2022-08-03T10:42:32;5.33;;;2.73;;
3629;SDS011;1831;53.626;10.012;2022-08-03T10:45:04;5.67;;;3.03;;
3629;SDS011;1831;53.626;10.012;2022-08-03T10:47:32;7.40;;;3.37;;
3629;SDS011;1831;53.626;10.012;2022-08-03T10:50:01;5.33;;;2.90;;
3629;SDS011;1831;53.626;10.012;2022-08-03T10:52:29;9.00;;;3.03;;
3629;SDS011;1831;53.626;10.012;2022-08-03T10:54:56;11.70;;;3.30;;
3629;SDS011;1831;53.626;10.012;2022-08-03T10:57:44;8.70;;;2.97;;
3629;SDS011;1831;53.626;10.012;2022-08-03T11:00:14;6.07;;;2.77;;
3629;SDS011;1831;53.626;10.012;2022-08-03T11:03:00;7.90;;;3.13;;
3629;SDS011;1831;53.626;10.012;2022-08-03T11:05:39;8.10;;;3.43;;
3629;SDS011;1831;53.626;10.012;2022-08-03T11:08:20;5.53;;;2.67;;
3629;SDS011;1831;53.626;10.012;2022-08-03T11:10:53;9.87;;;3.43;;
3629;SDS011;1831;53.626;10.012;2022-08-03T11:13:22;9.93;;;3.30;;
3629;SDS011;1831;53.626;10.012;2022-08-03T11:15:54;9.20;;;2.77;;
3629;SDS011;1831;53.626;10.012;2022-08-03T11:18:23;10.40;;;2.93;;
3629;SDS011;1831;53.626;10.012;2022-08-03T11:20:51;6.17;;;2.53;;
3629;SDS011;1831;53.626;10.012;2022-08-03T11:23:39;6.13;;;2.73;;
3629;SDS011;1831;53.626;10.012;2022-08-03T11:26:11;6.53;;;3.47;;
3629;SDS011;1831;53.626;10.012;2022-08-03T11:28:39;11.30;;;3.37;;
3629;SDS011;1831;53.626;10.012;2022-08-03T11:34:22;4.13;;;2.40;;
3629;SDS011;1831;53.626;10.012;2022-08-03T11:40:01;9.30;;;3.33;;
3629;SDS011;1831;53.626;10.012;2022-08-03T11:42:41;6.63;;;3.13;;
3629;SDS011;1831;53.626;10.012;2022-08-03T11:45:15;10.07;;;3.17;;
3629;SDS011;1831;53.626;10.012;2022-08-03T11:47:46;7.00;;;2.40;;
3629;SDS011;1831;53.626;10.012;2022-08-03T11:50:19;9.43;;;4.23;;
3629;SDS011;1831;53.626;10.012;2022-08-03T11:52:54;7.67;;;4.70;;
3629;SDS011;1831;53.626;10.012;2022-08-03T11:55:22;10.83;;;3.40;;
3629;SDS011;1831;53.626;10.012;2022-08-03T11:57:49;7.83;;;2.97;;
3629;SDS011;1831;53.626;10.012;2022-08-03T12:00:23;9.20;;;5.50;;
3629;SDS011;1831;53.626;10.012;2022-08-03T12:02:58;9.47;;;3.40;;
3629;SDS011;1831;53.626;10.012;2022-08-03T12:05:40;17.30;;;11.20;;
3629;SDS011;1831;53.626;10.012;2022-08-03T12:08:12;6.53;;;3.20;;
3629;SDS011;1831;53.626;10.012;2022-08-03T12:10:46;9.20;;;4.03;;
3629;SDS011;1831;53.626;10.012;2022-08-03T12:13:14;13.70;;;3.53;;
3629;SDS011;1831;53.626;10.012;2022-08-03T12:15:42;5.23;;;2.80;;
3629;SDS011;1831;53.626;10.012;2022-08-03T12:18:12;8.93;;;3.10;;
3629;SDS011;1831;53.626;10.012;2022-08-03T12:20:41;8.00;;;3.70;;
3629;SDS011;1831;53.626;10.012;2022-08-03T12:23:09;8.60;;;3.20;;
3629;SDS011;1831;53.626;10.012;2022-08-03T12:25:38;8.83;;;4.20;;
3629;SDS011;1831;53.626;10.012;2022-08-03T12:28:14;9.20;;;3.10;;
3629;SDS011;1831;53.626;10.012;2022-08-03T12:30:47;7.27;;;2.80;;
3629;SDS011;1831;53.626;10.012;2022-08-03T12:33:17;8.93;;;3.23;;
3629;SDS011;1831;53.626;10.012;2022-08-03T12:35:50;5.77;;;3.10;;
3629;SDS011;1831;53.626;10.012;2022-08-03T12:38:28;10.47;;;6.00;;
3629;SDS011;1831;53.626;10.012;2022-08-03T12:41:00;8.53;;;3.57;;
3629;SDS011;1831;53.626;10.012;2022-08-03T12:43:30;7.63;;;3.10;;
3629;SDS011;1831;53.626;10.012;2022-08-03T12:46:08;8.97;;;3.03;;
3629;SDS011;1831;53.626;10.012;2022-08-03T12:48:36;9.60;;;3.10;;
3629;SDS011;1831;53.626;10.012;2022-08-03T12:51:23;9.30;;;3.20;;
3629;SDS011;1831;53.626;10.012;2022-08-03T12:53:52;6.33;;;3.20;;
3629;SDS011;1831;53.626;10.012;2022-08-03T12:56:19;11.73;;;3.50;;
3629;SDS011;1831;53.626;10.012;2022-08-03T12:58:48;10.30;;;3.30;;
3629;SDS011;1831;53.626;10.012;2022-08-03T13:01:15;4.93;;;2.63;;
3629;SDS011;1831;53.626;10.012;2022-08-03T13:03:43;9.77;;;3.30;;
3629;SDS011;1831;53.626;10.012;2022-08-03T13:06:12;10.57;;;3.40;;
3629;SDS011;1831;53.626;10.012;2022-08-03T13:08:40;8.97;;;3.53;;
3629;SDS011;1831;53.626;10.012;2022-08-03T13:11:20;12.53;;;3.87;;
3629;SDS011;1831;53.626;10.012;2022-08-03T13:13:50;7.30;;;3.30;;
3629;SDS011;1831;53.626;10.012;2022-08-03T13:16:17;7.20;;;3.30;;
3629;SDS011;1831;53.626;10.012;2022-08-03T13:18:46;7.07;;;2.97;;
3629;SDS011;1831;53.626;10.012;2022-08-03T13:21:13;6.43;;;2.70;;
3629;SDS011;1831;53.626;10.012;2022-08-03T13:23:40;12.87;;;3.63;;
3629;SDS011;1831;53.626;10.012;2022-08-03T13:26:07;8.50;;;3.10;;
3629;SDS011;1831;53.626;10.012;2022-08-03T13:28:36;6.80;;;3.20;;
3629;SDS011;1831;53.626;10.012;2022-08-03T13:31:04;9.07;;;3.57;;
3629;SDS011;1831;53.626;10.012;2022-08-03T13:33:32;6.60;;;3.40;;
3629;SDS011;1831;53.626;10.012;2022-08-03T13:35:59;7.60;;;3.10;;
3629;SDS011;1831;53.626;10.012;2022-08-03T13:38:26;12.77;;;3.13;;
3629;SDS011;1831;53.626;10.012;2022-08-03T13:40:53;7.73;;;2.90;;
3629;SDS011;1831;53.626;10.012;2022-08-03T13:43:20;5.03;;;2.80;;
3629;SDS011;1831;53.626;10.012;2022-08-03T13:45:47;6.40;;;3.00;;
3629;SDS011;1831;53.626;10.012;2022-08-03T13:48:15;6.20;;;2.57;;
3629;SDS011;1831;53.626;10.012;2022-08-03T13:50:42;6.97;;;3.13;;
3629;SDS011;1831;53.626;10.012;2022-08-03T13:53:09;7.13;;;2.90;;
3629;SDS011;1831;53.626;10.012;2022-08-03T13:55:36;8.63;;;2.70;;
3629;SDS011;1831;53.626;10.012;2022-08-03T13:58:03;7.30;;;2.80;;
3629;SDS011;1831;53.626;10.012;2022-08-03T14:00:32;15.00;;;3.63;;
3629;SDS011;1831;53.626;10.012;2022-08-03T14:03:00;11.13;;;3.13;;
3629;SDS011;1831;53.626;10.012;2022-08-03T14:05:31;6.07;;;3.20;;
3629;SDS011;1831;53.626;10.012;2022-08-03T14:07:58;5.67;;;2.67;;
3629;SDS011;1831;53.626;10.012;2022-08-03T14:10:26;5.67;;;2.80;;
3629;SDS011;1831;53.626;10.012;2022-08-03T14:12:53;6.37;;;3.00;;
3629;SDS011;1831;53.626;10.012;2022-08-03T14:15:21;6.57;;;2.63;;
3629;SDS011;1831;53.626;10.012;2022-08-03T14:17:48;9.63;;;2.60;;
3629;SDS011;1831;53.626;10.012;2022-08-03T14:20:15;7.87;;;3.33;;
3629;SDS011;1831;53.626;10.012;2022-08-03T14:22:43;6.93;;;2.40;;
3629;SDS011;1831;53.626;10.012;2022-08-03T14:25:10;9.40;;;2.60;;
3629;SDS011;1831;53.626;10.012;2022-08-03T14:27:38;5.10;;;2.67;;
3629;SDS011;1831;53.626;10.012;2022-08-03T14:30:05;8.33;;;2.17;;
3629;SDS011;1831;53.626;10.012;2022-08-03T14:32:32;7.40;;;2.43;;
3629;SDS011;1831;53.626;10.012;2022-08-03T14:34:59;6.63;;;2.77;;
3629;SDS011;1831;53.626;10.012;2022-08-03T14:37:26;6.17;;;2.13;;
3629;SDS011;1831;53.626;10.012;2022-08-03T14:39:54;5.40;;;2.20;;
3629;SDS011;1831;53.626;10.012;2022-08-03T14:42:21;8.90;;;2.67;;
3629;SDS011;1831;53.626;10.012;2022-08-03T14:44:49;7.20;;;2.40;;
3629;SDS011;1831;53.626;10.012;2022-08-03T14:47:16;7.03;;;2.40;;
3629;SDS011;1831;53.626;10.012;2022-08-03T14:49:43;6.43;;;2.73;;
3629;SDS011;1831;53.626;10.012;2022-08-03T14:52:10;5.17;;;2.40;;
3629;SDS011;1831;53.626;10.012;2022-08-03T14:54:37;5.33;;;2.10;;
3629;SDS011;1831;53.626;10.012;2022-08-03T14:57:05;6.53;;;2.40;;
3629;SDS011;1831;53.626;10.012;2022-08-03T14:59:32;4.50;;;2.10;;
3629;SDS011;1831;53.626;10.012;2022-08-03T15:01:59;5.00;;;2.37;;
3629;SDS011;1831;53.626;10.012;2022-08-03T15:04:26;4.87;;;2.07;;
3629;SDS011;1831;53.626;10.012;2022-08-03T15:06:53;7.77;;;2.80;;
3629;SDS011;1831;53.626;10.012;2022-08-03T15:09:19;5.47;;;2.43;;